Terminal Aerodrome Forecast
Issued by NWS Topeka, KS

Home | Current Version | Previous Version | Text Only | Print | Product List | Glossary On
Versions: 1 2 3 4 5 6 7 8 9 10 11 12
391
FTUS43 KTOP 211720
TAFTOP
TAF
KTOP 211720Z 2118/2218 17012G25KT P6SM SCT028
     FM220300 17010KT P6SM SKC WS012/20040KT
     FM221300 17013G23KT P6SM SCT025 SCT250=

USA.gov is the U.S. government's official web portal to all federal, state and local government web resources and services.